sensor_id;sensor_type;location;lat;lon;timestamp;temperature;humidity
12841;DHT22;6487;48.626;12.486;2023-06-14T00:00:11;14.90;74.70
12841;DHT22;6487;48.626;12.486;2023-06-14T00:02:42;14.90;75.40
12841;DHT22;6487;48.626;12.486;2023-06-14T00:05:10;14.90;75.20
12841;DHT22;6487;48.626;12.486;2023-06-14T00:07:45;14.80;74.80
12841;DHT22;6487;48.626;12.486;2023-06-14T00:10:15;14.90;74.50
12841;DHT22;6487;48.626;12.486;2023-06-14T00:12:45;14.90;75.00
12841;DHT22;6487;48.626;12.486;2023-06-14T00:15:13;14.70;75.50
12841;DHT22;6487;48.626;12.486;2023-06-14T00:17:42;14.70;75.20
12841;DHT22;6487;48.626;12.486;2023-06-14T00:20:14;14.70;75.30
12841;DHT22;6487;48.626;12.486;2023-06-14T00:22:43;14.70;76.50
12841;DHT22;6487;48.626;12.486;2023-06-14T00:25:12;14.70;76.30
12841;DHT22;6487;48.626;12.486;2023-06-14T00:27:57;14.60;75.90
12841;DHT22;6487;48.626;12.486;2023-06-14T00:30:25;14.50;75.70
12841;DHT22;6487;48.626;12.486;2023-06-14T00:32:58;14.60;76.20
12841;DHT22;6487;48.626;12.486;2023-06-14T00:35:29;14.60;76.70
12841;DHT22;6487;48.626;12.486;2023-06-14T00:37:57;14.40;76.40
12841;DHT22;6487;48.626;12.486;2023-06-14T00:40:26;14.40;75.30
12841;DHT22;6487;48.626;12.486;2023-06-14T00:42:56;14.30;76.90
12841;DHT22;6487;48.626;12.486;2023-06-14T00:45:29;14.30;77.00
12841;DHT22;6487;48.626;12.486;2023-06-14T00:48:04;14.40;77.10
12841;DHT22;6487;48.626;12.486;2023-06-14T00:50:33;14.30;77.90
12841;DHT22;6487;48.626;12.486;2023-06-14T00:53:03;14.30;77.20
12841;DHT22;6487;48.626;12.486;2023-06-14T00:55:31;14.30;77.20
12841;DHT22;6487;48.626;12.486;2023-06-14T00:58:05;14.30;77.20
12841;DHT22;6487;48.626;12.486;2023-06-14T01:00:37;14.20;78.40
12841;DHT22;6487;48.626;12.486;2023-06-14T01:03:05;14.20;79.00
12841;DHT22;6487;48.626;12.486;2023-06-14T01:05:37;14.10;79.00
12841;DHT22;6487;48.626;12.486;2023-06-14T01:08:23;14.20;78.80
12841;DHT22;6487;48.626;12.486;2023-06-14T01:11:02;14.10;79.10
12841;DHT22;6487;48.626;12.486;2023-06-14T01:13:37;14.10;78.60
12841;DHT22;6487;48.626;12.486;2023-06-14T01:16:08;14.00;78.90
12841;DHT22;6487;48.626;12.486;2023-06-14T01:18:36;14.00;79.00
12841;DHT22;6487;48.626;12.486;2023-06-14T01:21:05;13.90;79.20
12841;DHT22;6487;48.626;12.486;2023-06-14T01:23:36;13.90;80.10
12841;DHT22;6487;48.626;12.486;2023-06-14T01:26:05;13.80;81.00
12841;DHT22;6487;48.626;12.486;2023-06-14T01:28:34;13.90;81.00
12841;DHT22;6487;48.626;12.486;2023-06-14T01:31:04;13.80;80.40
12841;DHT22;6487;48.626;12.486;2023-06-14T01:33:33;13.80;80.90
12841;DHT22;6487;48.626;12.486;2023-06-14T01:36:03;13.70;80.60
12841;DHT22;6487;48.626;12.486;2023-06-14T01:38:33;13.70;80.80
12841;DHT22;6487;48.626;12.486;2023-06-14T01:41:03;13.60;80.50
12841;DHT22;6487;48.626;12.486;2023-06-14T01:43:33;13.60;81.50
12841;DHT22;6487;48.626;12.486;2023-06-14T01:46:03;13.50;81.10
12841;DHT22;6487;48.626;12.486;2023-06-14T01:48:32;13.50;81.80
12841;DHT22;6487;48.626;12.486;2023-06-14T01:51:03;13.50;82.10
12841;DHT22;6487;48.626;12.486;2023-06-14T01:53:32;13.40;81.60
12841;DHT22;6487;48.626;12.486;2023-06-14T01:56:00;13.40;81.20
12841;DHT22;6487;48.626;12.486;2023-06-14T01:58:30;13.30;82.30
12841;DHT22;6487;48.626;12.486;2023-06-14T02:00:58;13.10;81.60
12841;DHT22;6487;48.626;12.486;2023-06-14T02:03:27;12.90;82.10
12841;DHT22;6487;48.626;12.486;2023-06-14T02:05:57;12.80;82.70
12841;DHT22;6487;48.626;12.486;2023-06-14T02:08:25;12.80;82.90
12841;DHT22;6487;48.626;12.486;2023-06-14T02:10:53;12.80;82.90
12841;DHT22;6487;48.626;12.486;2023-06-14T02:13:22;12.80;83.00
12841;DHT22;6487;48.626;12.486;2023-06-14T02:15:52;12.80;83.60
12841;DHT22;6487;48.626;12.486;2023-06-14T02:18:21;12.80;83.50
12841;DHT22;6487;48.626;12.486;2023-06-14T02:20:50;12.90;84.30
12841;DHT22;6487;48.626;12.486;2023-06-14T02:23:18;12.80;85.70
12841;DHT22;6487;48.626;12.486;2023-06-14T02:25:47;12.80;84.80
12841;DHT22;6487;48.626;12.486;2023-06-14T02:28:16;12.80;85.40
12841;DHT22;6487;48.626;12.486;2023-06-14T02:30:44;12.80;84.60
12841;DHT22;6487;48.626;12.486;2023-06-14T02:33:14;12.80;85.80
12841;DHT22;6487;48.626;12.486;2023-06-14T02:35:45;12.70;85.00
12841;DHT22;6487;48.626;12.486;2023-06-14T02:38:14;12.70;85.60
12841;DHT22;6487;48.626;12.486;2023-06-14T02:40:42;12.60;85.60
12841;DHT22;6487;48.626;12.486;2023-06-14T02:43:11;12.50;86.30
12841;DHT22;6487;48.626;12.486;2023-06-14T02:45:39;12.30;86.90
12841;DHT22;6487;48.626;12.486;2023-06-14T02:48:08;12.30;87.90
12841;DHT22;6487;48.626;12.486;2023-06-14T02:50:38;12.40;86.90
12841;DHT22;6487;48.626;12.486;2023-06-14T02:53:06;12.20;86.70
12841;DHT22;6487;48.626;12.486;2023-06-14T02:55:35;12.10;87.70
12841;DHT22;6487;48.626;12.486;2023-06-14T02:58:07;12.20;87.40
12841;DHT22;6487;48.626;12.486;2023-06-14T03:00:38;12.20;87.70
12841;DHT22;6487;48.626;12.486;2023-06-14T03:03:08;12.10;87.40
12841;DHT22;6487;48.626;12.486;2023-06-14T03:05:44;12.20;87.70
12841;DHT22;6487;48.626;12.486;2023-06-14T03:08:14;12.10;88.10
12841;DHT22;6487;48.626;12.486;2023-06-14T03:10:44;12.20;88.30
12841;DHT22;6487;48.626;12.486;2023-06-14T03:13:12;12.20;88.40
12841;DHT22;6487;48.626;12.486;2023-06-14T03:15:41;12.20;88.20
12841;DHT22;6487;48.626;12.486;2023-06-14T03:18:11;12.20;88.40
12841;DHT22;6487;48.626;12.486;2023-06-14T03:20:46;12.10;88.40
12841;DHT22;6487;48.626;12.486;2023-06-14T03:23:14;12.10;88.90
12841;DHT22;6487;48.626;12.486;2023-06-14T03:25:43;12.10;88.80
12841;DHT22;6487;48.626;12.486;2023-06-14T03:28:11;12.20;89.30
12841;DHT22;6487;48.626;12.486;2023-06-14T03:30:40;12.10;89.40
12841;DHT22;6487;48.626;12.486;2023-06-14T03:33:08;12.10;89.60
12841;DHT22;6487;48.626;12.486;2023-06-14T03:35:37;12.10;89.70
12841;DHT22;6487;48.626;12.486;2023-06-14T03:38:07;12.10;90.00
12841;DHT22;6487;48.626;12.486;2023-06-14T03:40:35;12.10;89.80
12841;DHT22;6487;48.626;12.486;2023-06-14T03:43:04;12.10;90.50
12841;DHT22;6487;48.626;12.486;2023-06-14T03:45:32;12.10;90.20
12841;DHT22;6487;48.626;12.486;2023-06-14T03:48:00;12.10;90.30
12841;DHT22;6487;48.626;12.486;2023-06-14T03:50:29;12.10;90.70
12841;DHT22;6487;48.626;12.486;2023-06-14T03:52:59;12.10;90.60
12841;DHT22;6487;48.626;12.486;2023-06-14T03:55:29;12.10;90.70
12841;DHT22;6487;48.626;12.486;2023-06-14T03:58:02;12.10;90.70
12841;DHT22;6487;48.626;12.486;2023-06-14T04:00:31;12.10;91.00
12841;DHT22;6487;48.626;12.486;2023-06-14T04:03:00;12.10;91.10
12841;DHT22;6487;48.626;12.486;2023-06-14T04:05:30;12.00;91.30
12841;DHT22;6487;48.626;12.486;2023-06-14T04:07:59;12.00;91.00
12841;DHT22;6487;48.626;12.486;2023-06-14T04:10:29;12.00;91.00
12841;DHT22;6487;48.626;12.486;2023-06-14T04:12:57;12.10;91.10
12841;DHT22;6487;48.626;12.486;2023-06-14T04:15:25;12.10;91.10
12841;DHT22;6487;48.626;12.486;2023-06-14T04:17:55;12.20;91.10
12841;DHT22;6487;48.626;12.486;2023-06-14T04:20:24;12.20;91.50
12841;DHT22;6487;48.626;12.486;2023-06-14T04:22:56;12.20;91.20
12841;DHT22;6487;48.626;12.486;2023-06-14T04:25:25;12.30;91.50
12841;DHT22;6487;48.626;12.486;2023-06-14T04:27:56;12.30;91.40
12841;DHT22;6487;48.626;12.486;2023-06-14T04:30:25;12.40;91.50
12841;DHT22;6487;48.626;12.486;2023-06-14T04:32:58;12.40;91.50
12841;DHT22;6487;48.626;12.486;2023-06-14T04:35:27;12.40;91.60
12841;DHT22;6487;48.626;12.486;2023-06-14T04:37:55;12.50;91.70
12841;DHT22;6487;48.626;12.486;2023-06-14T04:40:24;12.40;91.70
12841;DHT22;6487;48.626;12.486;2023-06-14T04:42:53;12.50;92.00
12841;DHT22;6487;48.626;12.486;2023-06-14T04:45:22;12.60;92.30
12841;DHT22;6487;48.626;12.486;2023-06-14T04:47:59;12.70;92.30
12841;DHT22;6487;48.626;12.486;2023-06-14T04:50:28;12.70;91.80
12841;DHT22;6487;48.626;12.486;2023-06-14T04:52:59;12.70;91.10
12841;DHT22;6487;48.626;12.486;2023-06-14T04:55:28;12.70;90.80
12841;DHT22;6487;48.626;12.486;2023-06-14T04:57:56;12.70;91.10
12841;DHT22;6487;48.626;12.486;2023-06-14T05:00:26;12.80;90.80
12841;DHT22;6487;48.626;12.486;2023-06-14T05:02:55;12.90;90.70
12841;DHT22;6487;48.626;12.486;2023-06-14T05:05:23;13.00;90.70
12841;DHT22;6487;48.626;12.486;2023-06-14T05:07:52;13.00;90.60
12841;DHT22;6487;48.626;12.486;2023-06-14T05:10:20;13.10;90.90
12841;DHT22;6487;48.626;12.486;2023-06-14T05:12:49;13.20;91.30
12841;DHT22;6487;48.626;12.486;2023-06-14T05:15:17;13.30;91.20
12841;DHT22;6487;48.626;12.486;2023-06-14T05:17:47;13.30;91.20
12841;DHT22;6487;48.626;12.486;2023-06-14T05:20:20;13.40;91.20
12841;DHT22;6487;48.626;12.486;2023-06-14T05:22:49;13.50;91.00
12841;DHT22;6487;48.626;12.486;2023-06-14T05:25:19;13.50;91.00
12841;DHT22;6487;48.626;12.486;2023-06-14T05:27:48;13.60;91.80
12841;DHT22;6487;48.626;12.486;2023-06-14T05:30:17;13.70;91.80
12841;DHT22;6487;48.626;12.486;2023-06-14T05:32:47;13.70;91.70
12841;DHT22;6487;48.626;12.486;2023-06-14T05:35:15;13.90;91.70
12841;DHT22;6487;48.626;12.486;2023-06-14T05:37:44;14.00;91.30
12841;DHT22;6487;48.626;12.486;2023-06-14T05:40:14;14.10;91.40
12841;DHT22;6487;48.626;12.486;2023-06-14T05:42:44;14.20;91.60
12841;DHT22;6487;48.626;12.486;2023-06-14T05:45:12;14.30;92.20
12841;DHT22;6487;48.626;12.486;2023-06-14T05:47:42;14.40;91.80
12841;DHT22;6487;48.626;12.486;2023-06-14T05:50:15;14.50;92.00
12841;DHT22;6487;48.626;12.486;2023-06-14T05:52:43;14.60;92.20
12841;DHT22;6487;48.626;12.486;2023-06-14T05:55:12;14.70;92.30
12841;DHT22;6487;48.626;12.486;2023-06-14T05:57:41;14.80;92.70
12841;DHT22;6487;48.626;12.486;2023-06-14T06:00:10;15.00;92.30
12841;DHT22;6487;48.626;12.486;2023-06-14T06:02:41;15.00;92.30
12841;DHT22;6487;48.626;12.486;2023-06-14T06:05:13;15.20;91.90
12841;DHT22;6487;48.626;12.486;2023-06-14T06:07:42;15.30;91.90
12841;DHT22;6487;48.626;12.486;2023-06-14T06:10:12;15.50;91.00
12841;DHT22;6487;48.626;12.486;2023-06-14T06:12:41;15.60;90.70
12841;DHT22;6487;48.626;12.486;2023-06-14T06:15:10;15.80;90.90
12841;DHT22;6487;48.626;12.486;2023-06-14T06:17:39;16.00;90.40
12841;DHT22;6487;48.626;12.486;2023-06-14T06:20:22;16.20;89.40
12841;DHT22;6487;48.626;12.486;2023-06-14T06:22:56;16.30;89.40
12841;DHT22;6487;48.626;12.486;2023-06-14T06:25:25;16.50;88.40
12841;DHT22;6487;48.626;12.486;2023-06-14T06:27:54;16.60;85.50
12841;DHT22;6487;48.626;12.486;2023-06-14T06:30:24;16.80;86.50
12841;DHT22;6487;48.626;12.486;2023-06-14T06:32:55;16.90;86.10
12841;DHT22;6487;48.626;12.486;2023-06-14T06:35:25;17.20;85.30
12841;DHT22;6487;48.626;12.486;2023-06-14T06:37:53;17.10;81.00
12841;DHT22;6487;48.626;12.486;2023-06-14T06:40:22;17.20;83.20
12841;DHT22;6487;48.626;12.486;2023-06-14T06:42:51;17.30;82.40
12841;DHT22;6487;48.626;12.486;2023-06-14T06:45:20;17.40;80.90
12841;DHT22;6487;48.626;12.486;2023-06-14T06:47:51;17.40;80.50
12841;DHT22;6487;48.626;12.486;2023-06-14T06:50:27;17.40;80.90
12841;DHT22;6487;48.626;12.486;2023-06-14T06:52:55;17.70;81.70
12841;DHT22;6487;48.626;12.486;2023-06-14T06:55:24;17.80;79.50
12841;DHT22;6487;48.626;12.486;2023-06-14T06:57:52;17.90;78.30
12841;DHT22;6487;48.626;12.486;2023-06-14T07:00:23;18.00;80.10
12841;DHT22;6487;48.626;12.486;2023-06-14T07:02:54;18.10;78.80
12841;DHT22;6487;48.626;12.486;2023-06-14T07:05:23;18.20;79.10
12841;DHT22;6487;48.626;12.486;2023-06-14T07:07:56;18.30;79.10
12841;DHT22;6487;48.626;12.486;2023-06-14T07:10:30;18.50;79.20
12841;DHT22;6487;48.626;12.486;2023-06-14T07:12:59;18.60;79.70
12841;DHT22;6487;48.626;12.486;2023-06-14T07:15:27;18.70;78.80
12841;DHT22;6487;48.626;12.486;2023-06-14T07:17:55;18.90;80.40
12841;DHT22;6487;48.626;12.486;2023-06-14T07:20:26;19.00;79.50
12841;DHT22;6487;48.626;12.486;2023-06-14T07:22:56;19.20;78.70
12841;DHT22;6487;48.626;12.486;2023-06-14T07:25:25;19.30;78.80
12841;DHT22;6487;48.626;12.486;2023-06-14T07:27:53;19.40;77.60
12841;DHT22;6487;48.626;12.486;2023-06-14T07:30:21;19.50;78.00
12841;DHT22;6487;48.626;12.486;2023-06-14T07:32:52;19.60;78.70
12841;DHT22;6487;48.626;12.486;2023-06-14T07:35:21;19.60;77.10
12841;DHT22;6487;48.626;12.486;2023-06-14T07:37:49;19.60;76.80
12841;DHT22;6487;48.626;12.486;2023-06-14T07:40:19;19.70;76.50
12841;DHT22;6487;48.626;12.486;2023-06-14T07:42:48;19.70;75.80
12841;DHT22;6487;48.626;12.486;2023-06-14T07:45:17;19.90;79.00
12841;DHT22;6487;48.626;12.486;2023-06-14T07:47:46;20.10;76.80
12841;DHT22;6487;48.626;12.486;2023-06-14T07:50:14;20.30;77.20
12841;DHT22;6487;48.626;12.486;2023-06-14T07:52:44;20.50;76.60
12841;DHT22;6487;48.626;12.486;2023-06-14T07:55:13;20.60;77.00
12841;DHT22;6487;48.626;12.486;2023-06-14T07:57:47;20.80;75.90
12841;DHT22;6487;48.626;12.486;2023-06-14T08:00:16;20.90;73.40
12841;DHT22;6487;48.626;12.486;2023-06-14T08:02:46;21.00;73.10
12841;DHT22;6487;48.626;12.486;2023-06-14T08:05:17;21.00;71.70
12841;DHT22;6487;48.626;12.486;2023-06-14T08:07:49;20.80;73.70
12841;DHT22;6487;48.626;12.486;2023-06-14T08:10:18;21.10;72.60
12841;DHT22;6487;48.626;12.486;2023-06-14T08:12:48;20.90;71.40
12841;DHT22;6487;48.626;12.486;2023-06-14T08:15:19;21.10;72.30
12841;DHT22;6487;48.626;12.486;2023-06-14T08:17:48;21.30;71.60
12841;DHT22;6487;48.626;12.486;2023-06-14T08:20:17;21.50;72.30
12841;DHT22;6487;48.626;12.486;2023-06-14T08:22:48;21.40;71.30
12841;DHT22;6487;48.626;12.486;2023-06-14T08:25:17;21.70;70.70
12841;DHT22;6487;48.626;12.486;2023-06-14T08:27:50;21.80;71.10
12841;DHT22;6487;48.626;12.486;2023-06-14T08:30:18;21.70;70.20
12841;DHT22;6487;48.626;12.486;2023-06-14T08:32:46;21.70;70.20
12841;DHT22;6487;48.626;12.486;2023-06-14T08:35:28;21.90;69.60
12841;DHT22;6487;48.626;12.486;2023-06-14T08:37:59;21.80;68.70
12841;DHT22;6487;48.626;12.486;2023-06-14T08:40:31;21.80;70.10
12841;DHT22;6487;48.626;12.486;2023-06-14T08:43:00;22.10;71.30
12841;DHT22;6487;48.626;12.486;2023-06-14T08:45:32;22.20;68.00
12841;DHT22;6487;48.626;12.486;2023-06-14T08:48:00;22.00;67.10
12841;DHT22;6487;48.626;12.486;2023-06-14T08:50:30;22.10;69.10
12841;DHT22;6487;48.626;12.486;2023-06-14T08:53:05;22.20;69.40
12841;DHT22;6487;48.626;12.486;2023-06-14T08:55:37;22.10;68.30
12841;DHT22;6487;48.626;12.486;2023-06-14T08:58:10;22.30;69.30
12841;DHT22;6487;48.626;12.486;2023-06-14T09:00:41;22.50;69.10
12841;DHT22;6487;48.626;12.486;2023-06-14T09:03:13;22.70;68.30
12841;DHT22;6487;48.626;12.486;2023-06-14T09:05:42;22.80;69.50
12841;DHT22;6487;48.626;12.486;2023-06-14T09:08:13;23.20;69.20
12841;DHT22;6487;48.626;12.486;2023-06-14T09:10:41;23.50;69.90
12841;DHT22;6487;48.626;12.486;2023-06-14T09:13:12;23.50;66.80
12841;DHT22;6487;48.626;12.486;2023-06-14T09:15:42;23.70;66.60
12841;DHT22;6487;48.626;12.486;2023-06-14T09:18:11;23.50;66.10
12841;DHT22;6487;48.626;12.486;2023-06-14T09:20:40;23.70;64.10
12841;DHT22;6487;48.626;12.486;2023-06-14T09:23:11;23.80;65.30
12841;DHT22;6487;48.626;12.486;2023-06-14T09:25:43;23.60;64.30
12841;DHT22;6487;48.626;12.486;2023-06-14T09:28:14;23.50;65.20
12841;DHT22;6487;48.626;12.486;2023-06-14T09:30:43;23.60;66.80
12841;DHT22;6487;48.626;12.486;2023-06-14T09:33:16;23.90;65.30
12841;DHT22;6487;48.626;12.486;2023-06-14T09:35:45;24.00;64.00
12841;DHT22;6487;48.626;12.486;2023-06-14T09:38:14;24.10;63.70
12841;DHT22;6487;48.626;12.486;2023-06-14T09:40:42;24.20;60.00
12841;DHT22;6487;48.626;12.486;2023-06-14T09:43:10;24.60;62.70
12841;DHT22;6487;48.626;12.486;2023-06-14T09:45:40;24.80;62.10
12841;DHT22;6487;48.626;12.486;2023-06-14T09:48:12;24.80;59.60
12841;DHT22;6487;48.626;12.486;2023-06-14T09:50:45;24.80;62.80
12841;DHT22;6487;48.626;12.486;2023-06-14T09:53:15;25.00;61.70
12841;DHT22;6487;48.626;12.486;2023-06-14T09:55:47;24.90;59.20
12841;DHT22;6487;48.626;12.486;2023-06-14T09:58:18;25.00;59.60
12841;DHT22;6487;48.626;12.486;2023-06-14T10:00:50;24.80;56.80
12841;DHT22;6487;48.626;12.486;2023-06-14T10:03:24;24.90;60.20
12841;DHT22;6487;48.626;12.486;2023-06-14T10:06:03;25.10;61.40
12841;DHT22;6487;48.626;12.486;2023-06-14T10:08:38;25.40;61.10
12841;DHT22;6487;48.626;12.486;2023-06-14T10:11:11;25.60;59.90
12841;DHT22;6487;48.626;12.486;2023-06-14T10:13:41;25.40;56.80
12841;DHT22;6487;48.626;12.486;2023-06-14T10:16:16;25.20;57.10
12841;DHT22;6487;48.626;12.486;2023-06-14T10:18:51;25.10;56.80
12841;DHT22;6487;48.626;12.486;2023-06-14T10:21:32;25.20;59.20
12841;DHT22;6487;48.626;12.486;2023-06-14T10:24:06;25.40;58.00
12841;DHT22;6487;48.626;12.486;2023-06-14T10:26:35;25.60;57.40
12841;DHT22;6487;48.626;12.486;2023-06-14T10:29:18;25.80;58.50
12841;DHT22;6487;48.626;12.486;2023-06-14T10:31:49;26.20;58.50
12841;DHT22;6487;48.626;12.486;2023-06-14T10:34:24;26.10;56.50
12841;DHT22;6487;48.626;12.486;2023-06-14T10:37:11;26.10;56.20
12841;DHT22;6487;48.626;12.486;2023-06-14T10:39:44;26.10;55.20
12841;DHT22;6487;48.626;12.486;2023-06-14T10:42:13;26.30;57.70
12841;DHT22;6487;48.626;12.486;2023-06-14T10:44:44;26.40;53.40
12841;DHT22;6487;48.626;12.486;2023-06-14T10:47:28;26.40;56.70
12841;DHT22;6487;48.626;12.486;2023-06-14T10:50:04;26.50;53.90
12841;DHT22;6487;48.626;12.486;2023-06-14T10:52:37;26.70;53.70
12841;DHT22;6487;48.626;12.486;2023-06-14T10:55:09;26.30;53.90
12841;DHT22;6487;48.626;12.486;2023-06-14T10:57:41;26.60;55.90
12841;DHT22;6487;48.626;12.486;2023-06-14T11:00:19;26.60;54.80
12841;DHT22;6487;48.626;12.486;2023-06-14T11:03:36;26.60;55.60
12841;DHT22;6487;48.626;12.486;2023-06-14T11:06:14;26.90;57.00
12841;DHT22;6487;48.626;12.486;2023-06-14T11:09:09;26.70;54.00
12841;DHT22;6487;48.626;12.486;2023-06-14T11:11:48;27.00;57.00
12841;DHT22;6487;48.626;12.486;2023-06-14T11:14:17;27.20;56.40
12841;DHT22;6487;48.626;12.486;2023-06-14T11:16:48;27.30;55.00
12841;DHT22;6487;48.626;12.486;2023-06-14T11:19:18;27.50;55.40
12841;DHT22;6487;48.626;12.486;2023-06-14T11:21:49;27.60;54.70
12841;DHT22;6487;48.626;12.486;2023-06-14T11:24:18;27.60;53.20
12841;DHT22;6487;48.626;12.486;2023-06-14T11:26:49;27.60;51.40
12841;DHT22;6487;48.626;12.486;2023-06-14T11:29:20;27.90;53.60
12841;DHT22;6487;48.626;12.486;2023-06-14T11:31:51;27.90;53.60
12841;DHT22;6487;48.626;12.486;2023-06-14T11:34:21;28.00;51.80
12841;DHT22;6487;48.626;12.486;2023-06-14T11:36:49;28.00;53.40
12841;DHT22;6487;48.626;12.486;2023-06-14T11:39:24;28.00;52.80
12841;DHT22;6487;48.626;12.486;2023-06-14T11:41:53;27.70;51.90
12841;DHT22;6487;48.626;12.486;2023-06-14T11:44:24;27.70;53.00
12841;DHT22;6487;48.626;12.486;2023-06-14T11:46:55;27.70;54.20
12841;DHT22;6487;48.626;12.486;2023-06-14T11:49:28;27.70;54.00
12841;DHT22;6487;48.626;12.486;2023-06-14T11:51:56;27.60;54.80
12841;DHT22;6487;48.626;12.486;2023-06-14T11:54:25;27.90;54.20
12841;DHT22;6487;48.626;12.486;2023-06-14T11:56:56;27.60;54.70
12841;DHT22;6487;48.626;12.486;2023-06-14T11:59:30;27.80;53.00
12841;DHT22;6487;48.626;12.486;2023-06-14T12:01:59;27.70;52.40
12841;DHT22;6487;48.626;12.486;2023-06-14T12:04:29;27.60;55.10
12841;DHT22;6487;48.626;12.486;2023-06-14T12:07:08;27.40;51.80
12841;DHT22;6487;48.626;12.486;2023-06-14T12:09:39;27.30;51.50
12841;DHT22;6487;48.626;12.486;2023-06-14T12:12:08;27.10;52.30
12841;DHT22;6487;48.626;12.486;2023-06-14T12:14:37;26.60;53.80
12841;DHT22;6487;48.626;12.486;2023-06-14T12:17:09;26.60;52.90
12841;DHT22;6487;48.626;12.486;2023-06-14T12:19:43;26.50;52.30
12841;DHT22;6487;48.626;12.486;2023-06-14T12:22:13;26.60;52.80
12841;DHT22;6487;48.626;12.486;2023-06-14T12:24:44;26.60;53.20
12841;DHT22;6487;48.626;12.486;2023-06-14T12:27:13;26.20;52.10
12841;DHT22;6487;48.626;12.486;2023-06-14T12:29:58;26.20;53.50
12841;DHT22;6487;48.626;12.486;2023-06-14T12:32:28;26.30;55.10
12841;DHT22;6487;48.626;12.486;2023-06-14T12:34:58;26.20;52.80
12841;DHT22;6487;48.626;12.486;2023-06-14T12:37:26;26.20;51.50
12841;DHT22;6487;48.626;12.486;2023-06-14T12:39:56;26.60;52.30
12841;DHT22;6487;48.626;12.486;2023-06-14T12:42:24;26.80;54.10
12841;DHT22;6487;48.626;12.486;2023-06-14T12:44:52;27.00;52.90
12841;DHT22;6487;48.626;12.486;2023-06-14T12:47:23;26.90;51.70
12841;DHT22;6487;48.626;12.486;2023-06-14T12:49:55;27.10;50.30
12841;DHT22;6487;48.626;12.486;2023-06-14T12:52:24;27.10;50.70
12841;DHT22;6487;48.626;12.486;2023-06-14T12:54:53;27.20;50.00
12841;DHT22;6487;48.626;12.486;2023-06-14T12:57:24;27.00;51.10
12841;DHT22;6487;48.626;12.486;2023-06-14T12:59:52;27.30;51.60
12841;DHT22;6487;48.626;12.486;2023-06-14T13:02:20;27.10;51.30
12841;DHT22;6487;48.626;12.486;2023-06-14T13:04:52;27.10;50.30
12841;DHT22;6487;48.626;12.486;2023-06-14T13:07:20;26.90;49.20
12841;DHT22;6487;48.626;12.486;2023-06-14T13:09:51;26.60;50.20
12841;DHT22;6487;48.626;12.486;2023-06-14T13:12:19;26.70;53.00
12841;DHT22;6487;48.626;12.486;2023-06-14T13:14:47;26.70;51.60
12841;DHT22;6487;48.626;12.486;2023-06-14T13:17:16;27.00;51.40
12841;DHT22;6487;48.626;12.486;2023-06-14T13:19:44;26.90;48.90
12841;DHT22;6487;48.626;12.486;2023-06-14T13:24:41;27.20;49.90
12841;DHT22;6487;48.626;12.486;2023-06-14T13:27:10;27.20;49.00
12841;DHT22;6487;48.626;12.486;2023-06-14T13:29:41;27.10;47.30
12841;DHT22;6487;48.626;12.486;2023-06-14T13:32:09;26.90;49.60
12841;DHT22;6487;48.626;12.486;2023-06-14T13:34:40;27.10;49.90
12841;DHT22;6487;48.626;12.486;2023-06-14T13:37:15;27.10;49.60
12841;DHT22;6487;48.626;12.486;2023-06-14T13:39:43;26.90;51.80
12841;DHT22;6487;48.626;12.486;2023-06-14T13:42:16;27.00;53.40
12841;DHT22;6487;48.626;12.486;2023-06-14T13:44:45;27.10;52.70
12841;DHT22;6487;48.626;12.486;2023-06-14T13:47:18;27.10;49.90
12841;DHT22;6487;48.626;12.486;2023-06-14T13:49:46;27.00;48.90
12841;DHT22;6487;48.626;12.486;2023-06-14T13:52:20;27.10;50.70
12841;DHT22;6487;48.626;12.486;2023-06-14T13:54:57;26.90;51.50
12841;DHT22;6487;48.626;12.486;2023-06-14T13:57:28;27.20;51.30
12841;DHT22;6487;48.626;12.486;2023-06-14T13:59:56;26.90;47.90
12841;DHT22;6487;48.626;12.486;2023-06-14T14:02:31;26.80;46.80
12841;DHT22;6487;48.626;12.486;2023-06-14T14:05:03;26.80;47.40
12841;DHT22;6487;48.626;12.486;2023-06-14T14:07:32;26.90;47.30
12841;DHT22;6487;48.626;12.486;2023-06-14T14:10:04;26.90;47.60
12841;DHT22;6487;48.626;12.486;2023-06-14T14:12:36;27.00;46.80
12841;DHT22;6487;48.626;12.486;2023-06-14T14:15:06;26.90;45.80
12841;DHT22;6487;48.626;12.486;2023-06-14T14:17:40;27.00;46.40
12841;DHT22;6487;48.626;12.486;2023-06-14T14:20:12;27.10;45.80
12841;DHT22;6487;48.626;12.486;2023-06-14T14:22:49;27.00;46.20
12841;DHT22;6487;48.626;12.486;2023-06-14T14:25:17;26.90;45.60
12841;DHT22;6487;48.626;12.486;2023-06-14T14:27:47;26.90;48.30
12841;DHT22;6487;48.626;12.486;2023-06-14T14:30:15;27.10;46.40
12841;DHT22;6487;48.626;12.486;2023-06-14T14:32:53;27.10;46.40
12841;DHT22;6487;48.626;12.486;2023-06-14T14:35:33;27.20;48.20
12841;DHT22;6487;48.626;12.486;2023-06-14T14:38:01;27.20;48.10
12841;DHT22;6487;48.626;12.486;2023-06-14T14:40:31;27.30;48.10
12841;DHT22;6487;48.626;12.486;2023-06-14T14:43:07;27.30;48.40
12841;DHT22;6487;48.626;12.486;2023-06-14T14:45:36;27.40;47.40
12841;DHT22;6487;48.626;12.486;2023-06-14T14:48:05;27.30;45.60
12841;DHT22;6487;48.626;12.486;2023-06-14T14:50:34;27.20;46.80
12841;DHT22;6487;48.626;12.486;2023-06-14T14:53:02;26.90;45.70
12841;DHT22;6487;48.626;12.486;2023-06-14T14:55:33;27.00;48.40
12841;DHT22;6487;48.626;12.486;2023-06-14T14:58:04;27.10;46.70
12841;DHT22;6487;48.626;12.486;2023-06-14T15:00:37;26.70;47.30
12841;DHT22;6487;48.626;12.486;2023-06-14T15:03:08;26.70;48.00
12841;DHT22;6487;48.626;12.486;2023-06-14T15:05:37;26.60;51.40
12841;DHT22;6487;48.626;12.486;2023-06-14T15:08:05;26.50;50.50
12841;DHT22;6487;48.626;12.486;2023-06-14T15:10:39;26.80;51.00
12841;DHT22;6487;48.626;12.486;2023-06-14T15:13:13;26.80;50.40
12841;DHT22;6487;48.626;12.486;2023-06-14T15:15:43;26.90;49.50
12841;DHT22;6487;48.626;12.486;2023-06-14T15:18:11;26.80;50.40
12841;DHT22;6487;48.626;12.486;2023-06-14T15:20:41;26.50;50.20
12841;DHT22;6487;48.626;12.486;2023-06-14T15:23:10;26.60;50.10
12841;DHT22;6487;48.626;12.486;2023-06-14T15:25:38;26.70;50.90
12841;DHT22;6487;48.626;12.486;2023-06-14T15:28:07;26.60;49.60
12841;DHT22;6487;48.626;12.486;2023-06-14T15:30:36;26.10;50.50
12841;DHT22;6487;48.626;12.486;2023-06-14T15:33:06;26.10;51.10
12841;DHT22;6487;48.626;12.486;2023-06-14T15:35:35;26.00;51.30
12841;DHT22;6487;48.626;12.486;2023-06-14T15:38:07;25.90;52.20
12841;DHT22;6487;48.626;12.486;2023-06-14T15:40:35;26.00;52.40
12841;DHT22;6487;48.626;12.486;2023-06-14T15:43:04;25.70;51.70
12841;DHT22;6487;48.626;12.486;2023-06-14T15:45:32;25.50;51.80
12841;DHT22;6487;48.626;12.486;2023-06-14T15:48:01;25.40;52.60
12841;DHT22;6487;48.626;12.486;2023-06-14T15:50:31;25.40;52.80
12841;DHT22;6487;48.626;12.486;2023-06-14T15:53:00;25.50;51.60